createdAt,value
2017-12-26T00:00:11.728Z,2.1
2017-12-26T00:01:15.869Z,2.1
2017-12-26T00:02:21.191Z,2.1
2017-12-26T00:03:25.346Z,2.1
2017-12-26T00:04:29.487Z,2.1
2017-12-26T00:05:40.875Z,2.1
2017-12-26T00:06:45.619Z,2
2017-12-26T00:07:50.509Z,2
2017-12-26T00:08:53.953Z,2
2017-12-26T00:09:57.813Z,2
2017-12-26T00:11:03.744Z,2
2017-12-26T00:12:09.523Z,2
2017-12-26T00:13:13.573Z,2
2017-12-26T00:14:19.825Z,2
2017-12-26T00:15:24.640Z,2
2017-12-26T00:16:34.399Z,2.1
2017-12-26T00:17:39.812Z,2.1
2017-12-26T00:18:44.647Z,2
2017-12-26T00:19:49.851Z,2
2017-12-26T00:20:54.645Z,2
2017-12-26T00:22:00.215Z,2
2017-12-26T00:23:09.070Z,2
2017-12-26T00:24:14.217Z,2
2017-12-26T00:25:21.344Z,1.9
2017-12-26T00:26:28.447Z,2
2017-12-26T00:27:38.849Z,2
2017-12-26T00:28:43.602Z,2
2017-12-26T00:29:47.910Z,2
2017-12-26T00:30:51.354Z,2
2017-12-26T00:31:57.058Z,2
2017-12-26T00:33:04.319Z,2
2017-12-26T00:34:08.743Z,2.1
2017-12-26T00:35:14.247Z,2
2017-12-26T00:36:21.170Z,2
2017-12-26T00:37:26.548Z,2
2017-12-26T00:38:37.828Z,2
2017-12-26T00:39:44.150Z,2
2017-12-26T00:40:49.120Z,2
2017-12-26T00:41:54.628Z,2
2017-12-26T00:42:58.940Z,2
2017-12-26T00:44:04.623Z,2
2017-12-26T00:45:09.352Z,2
2017-12-26T00:46:16.982Z,2
2017-12-26T00:47:21.787Z,2
2017-12-26T00:48:27.239Z,2
2017-12-26T00:49:37.501Z,2
2017-12-26T00:50:42.281Z,2
2017-12-26T00:51:49.096Z,2
2017-12-26T00:52:55.503Z,1.9
2017-12-26T00:53:59.156Z,1.9
2017-12-26T00:55:04.913Z,1.9
2017-12-26T00:56:11.195Z,1.9
2017-12-26T00:57:19.000Z,1.9
2017-12-26T00:58:24.403Z,1.9
2017-12-26T00:59:29.688Z,1.9
2017-12-26T01:00:41.109Z,1.9
2017-12-26T01:01:45.947Z,1.9
2017-12-26T01:02:55.470Z,1.9
2017-12-26T01:04:01.616Z,1.9
2017-12-26T01:05:06.297Z,2
2017-12-26T01:06:13.339Z,1.9
2017-12-26T01:07:21.457Z,1.9
2017-12-26T01:08:26.871Z,1.9
2017-12-26T01:09:35.378Z,1.9
2017-12-26T01:10:43.527Z,2
2017-12-26T01:11:58.259Z,1.9
2017-12-26T01:13:03.800Z,1.9
2017-12-26T01:14:08.454Z,1.9
2017-12-26T01:15:13.903Z,1.9
2017-12-26T01:16:18.981Z,1.9
2017-12-26T01:17:28.378Z,1.9
2017-12-26T01:18:33.367Z,1.9
2017-12-26T01:19:37.469Z,1.9
2017-12-26T01:20:42.905Z,1.9
2017-12-26T01:21:49.420Z,2
2017-12-26T01:22:59.120Z,1.9
2017-12-26T01:24:03.139Z,1.9
2017-12-26T01:25:09.195Z,1.9
2017-12-26T01:26:14.138Z,1.9
2017-12-26T01:27:20.061Z,1.9
2017-12-26T01:28:25.486Z,1.9
2017-12-26T01:29:29.792Z,1.9
2017-12-26T01:30:34.208Z,2
2017-12-26T01:31:39.127Z,2
2017-12-26T01:32:46.139Z,2
2017-12-26T01:33:57.327Z,2
2017-12-26T01:35:02.493Z,2
2017-12-26T01:36:08.083Z,1.9
2017-12-26T01:37:14.547Z,1.9
2017-12-26T01:38:19.895Z,2
2017-12-26T01:39:24.155Z,2
2017-12-26T01:40:29.147Z,2
2017-12-26T01:41:34.359Z,2
2017-12-26T01:42:38.456Z,2
2017-12-26T01:43:42.487Z,1.9
2017-12-26T01:44:54.282Z,2
2017-12-26T01:45:59.864Z,2
2017-12-26T01:47:03.510Z,2
2017-12-26T01:48:09.635Z,2.1
2017-12-26T01:49:13.388Z,2
2017-12-26T01:50:16.767Z,2.1
2017-12-26T01:51:20.119Z,2.1
2017-12-26T01:52:25.018Z,2.1
2017-12-26T01:53:28.449Z,2.1
2017-12-26T01:54:32.461Z,2.1
2017-12-26T01:55:40.277Z,2.1
2017-12-26T01:56:43.659Z,2.1
2017-12-26T01:57:47.894Z,2
2017-12-26T01:58:53.260Z,2
2017-12-26T01:59:57.734Z,2
2017-12-26T02:01:01.030Z,2
2017-12-26T02:02:04.360Z,2
2017-12-26T02:03:07.817Z,2
2017-12-26T02:04:13.564Z,1.9
2017-12-26T02:05:17.848Z,1.9
2017-12-26T02:06:28.115Z,1.9
2017-12-26T02:07:32.125Z,1.9
2017-12-26T02:08:36.949Z,1.9
2017-12-26T02:09:41.466Z,1.9
2017-12-26T02:10:47.136Z,1.9
2017-12-26T02:11:50.609Z,1.9
2017-12-26T02:12:53.914Z,1.9
2017-12-26T02:13:57.237Z,1.9
2017-12-26T02:15:03.482Z,1.8
2017-12-26T02:16:07.013Z,1.9
2017-12-26T02:17:15.141Z,1.9
2017-12-26T02:18:19.271Z,1.8
2017-12-26T02:19:25.275Z,1.8
2017-12-26T02:20:30.578Z,1.8
2017-12-26T02:21:35.290Z,1.8
2017-12-26T02:22:40.310Z,1.8
2017-12-26T02:23:45.297Z,1.8
2017-12-26T02:24:48.822Z,1.8
2017-12-26T02:25:52.247Z,1.8
2017-12-26T02:26:56.441Z,1.8
2017-12-26T02:28:04.705Z,1.7
2017-12-26T02:29:09.018Z,1.7
2017-12-26T02:30:13.374Z,1.7
2017-12-26T02:31:16.966Z,1.7
2017-12-26T02:32:21.604Z,1.6
2017-12-26T02:33:24.940Z,1.4
2017-12-26T02:34:29.449Z,1.4
2017-12-26T02:35:33.081Z,1.3
2017-12-26T02:36:37.532Z,1.3
2017-12-26T02:37:41.260Z,1.3
2017-12-26T02:38:49.049Z,1.3
2017-12-26T02:39:53.858Z,1.4
2017-12-26T02:40:57.445Z,1.4
2017-12-26T02:42:03.111Z,1.5
2017-12-26T02:43:07.943Z,1.5
2017-12-26T02:44:13.373Z,1.6
2017-12-26T02:45:17.782Z,1.6
2017-12-26T02:46:22.641Z,1.7
2017-12-26T02:47:26.057Z,1.7
2017-12-26T02:48:33.293Z,1.7
2017-12-26T02:49:43.043Z,1.7
2017-12-26T02:50:47.196Z,1.6
2017-12-26T02:51:50.879Z,1.7
2017-12-26T02:52:54.011Z,1.7
2017-12-26T02:53:58.326Z,1.7
2017-12-26T02:55:02.674Z,1.8
2017-12-26T02:56:07.157Z,1.8
2017-12-26T02:57:10.606Z,1.8
2017-12-26T02:58:14.074Z,1.9
2017-12-26T02:59:18.473Z,1.9
2017-12-26T03:00:26.163Z,1.9
2017-12-26T03:01:30.424Z,1.9
2017-12-26T03:02:33.612Z,1.9
2017-12-26T03:03:39.094Z,1.9
2017-12-26T03:04:42.813Z,1.9
2017-12-26T03:05:45.978Z,1.9
2017-12-26T03:06:50.724Z,1.9
2017-12-26T03:07:55.554Z,1.8
2017-12-26T03:08:59.016Z,1.9
2017-12-26T03:10:02.659Z,1.8
2017-12-26T03:11:10.935Z,1.8
2017-12-26T03:12:16.210Z,1.7
2017-12-26T03:13:19.395Z,1.6
2017-12-26T03:14:23.377Z,1.6
2017-12-26T03:15:26.866Z,1.6
2017-12-26T03:16:29.958Z,1.5
2017-12-26T03:17:34.116Z,1.5
2017-12-26T03:18:38.327Z,1.5
2017-12-26T03:19:42.498Z,1.5
2017-12-26T03:20:47.279Z,1.5
2017-12-26T03:21:54.195Z,1.5
2017-12-26T03:22:58.346Z,1.5
2017-12-26T03:24:02.953Z,1.5
2017-12-26T03:25:07.371Z,1.5
2017-12-26T03:26:10.637Z,1.5
2017-12-26T03:27:16.073Z,1.6
2017-12-26T03:28:19.524Z,1.6
2017-12-26T03:29:25.786Z,1.6
2017-12-26T03:30:30.851Z,1.6
2017-12-26T03:31:35.122Z,1.7
2017-12-26T03:32:41.296Z,1.7
2017-12-26T03:33:46.121Z,1.7
2017-12-26T03:34:49.247Z,1.7
2017-12-26T03:35:53.326Z,1.7
2017-12-26T03:36:57.718Z,1.6
2017-12-26T03:38:02.250Z,1.6
2017-12-26T03:39:06.979Z,1.7
2017-12-26T03:40:12.582Z,1.6
2017-12-26T03:41:15.892Z,1.6
2017-12-26T03:42:19.413Z,1.6
2017-12-26T03:43:29.085Z,1.6
2017-12-26T03:44:32.963Z,1.5
2017-12-26T03:45:37.429Z,1.5
2017-12-26T03:46:41.371Z,1.5
2017-12-26T03:47:45.180Z,1.5
2017-12-26T03:48:49.770Z,1.5
2017-12-26T03:49:53.080Z,1.5
2017-12-26T03:50:57.610Z,1.5
2017-12-26T03:52:01.729Z,1.5
2017-12-26T03:53:15.200Z,1.5
2017-12-26T03:54:25.615Z,1.5
2017-12-26T03:55:29.699Z,1.5
2017-12-26T03:56:33.035Z,1.4
2017-12-26T03:57:36.641Z,1.5
2017-12-26T03:58:40.726Z,1.5
2017-12-26T03:59:44.356Z,1.5
2017-12-26T04:00:47.737Z,1.4
2017-12-26T04:01:52.933Z,1.4
2017-12-26T04:02:56.411Z,1.4
2017-12-26T04:03:59.920Z,1.4
2017-12-26T04:05:07.674Z,1.4
2017-12-26T04:06:12.048Z,1.4
2017-12-26T04:07:16.215Z,1.4
2017-12-26T04:08:20.897Z,1.4
2017-12-26T04:09:24.083Z,1.4
2017-12-26T04:10:29.262Z,1.4
2017-12-26T04:11:33.942Z,1.4
2017-12-26T04:12:37.368Z,1.4
2017-12-26T04:13:42.263Z,1.4
2017-12-26T04:14:45.599Z,1.3
2017-12-26T04:15:54.264Z,1.3
2017-12-26T04:16:57.654Z,1.3
2017-12-26T04:18:02.468Z,1.4
2017-12-26T04:19:06.494Z,1.4
2017-12-26T04:20:10.524Z,1.4
2017-12-26T04:21:13.869Z,1.4
2017-12-26T04:22:17.274Z,1.4
2017-12-26T04:23:22.693Z,1.5
2017-12-26T04:24:28.007Z,1.4
2017-12-26T04:25:33.150Z,1.4
2017-12-26T04:26:40.443Z,1.4
2017-12-26T04:27:44.170Z,1.4
2017-12-26T04:28:48.248Z,1.4
2017-12-26T04:29:51.901Z,1.4
2017-12-26T04:30:56.507Z,1.3
2017-12-26T04:32:01.242Z,1.3
2017-12-26T04:33:04.755Z,1.3
2017-12-26T04:34:10.449Z,1.3
2017-12-26T04:35:13.955Z,1.3
2017-12-26T04:36:18.887Z,1.3
2017-12-26T04:37:26.171Z,1.4
2017-12-26T04:38:30.678Z,1.3
2017-12-26T04:39:36.134Z,1.4
2017-12-26T04:40:39.616Z,1.4
2017-12-26T04:41:43.675Z,1.5
2017-12-26T04:42:47.852Z,1.5
2017-12-26T04:43:51.915Z,1.5
2017-12-26T04:44:55.761Z,1.5
2017-12-26T04:46:00.417Z,1.5
2017-12-26T04:47:03.962Z,1.5
2017-12-26T04:48:10.971Z,1.5
2017-12-26T04:49:15.218Z,1.4
2017-12-26T04:50:19.284Z,1.4
2017-12-26T04:51:23.752Z,1.4
2017-12-26T04:52:26.990Z,1.5
2017-12-26T04:53:31.452Z,1.5
2017-12-26T04:54:35.078Z,1.5
2017-12-26T04:55:38.409Z,1.5
2017-12-26T04:56:42.789Z,1.6
2017-12-26T04:57:46.417Z,1.6
2017-12-26T04:58:54.705Z,1.6
2017-12-26T04:59:58.755Z,1.6
2017-12-26T05:01:02.180Z,1.6
2017-12-26T05:02:05.648Z,1.6
2017-12-26T05:03:10.772Z,1.6
2017-12-26T05:04:14.300Z,1.7
2017-12-26T05:05:18.484Z,1.7
2017-12-26T05:06:24.443Z,1.7
2017-12-26T05:07:27.877Z,1.7
2017-12-26T05:08:31.853Z,1.7
2017-12-26T05:09:40.325Z,1.7
2017-12-26T05:10:45.061Z,1.7
2017-12-26T05:11:49.174Z,1.7
2017-12-26T05:12:53.586Z,1.7
2017-12-26T05:13:57.631Z,1.7
2017-12-26T05:15:01.686Z,1.7
2017-12-26T05:16:06.228Z,1.7
2017-12-26T05:17:11.979Z,1.7
2017-12-26T05:18:16.128Z,1.6
2017-12-26T05:19:21.731Z,1.6
2017-12-26T05:20:30.355Z,1.6
2017-12-26T05:21:33.578Z,1.6
2017-12-26T05:22:37.589Z,1.6
2017-12-26T05:23:41.378Z,1.6
2017-12-26T05:24:46.124Z,1.7
2017-12-26T05:25:50.044Z,1.7
2017-12-26T05:26:54.242Z,1.7
2017-12-26T05:28:00.266Z,1.7
2017-12-26T05:29:04.318Z,1.7
2017-12-26T05:30:07.876Z,1.7
2017-12-26T05:31:18.104Z,1.7
2017-12-26T05:32:22.212Z,1.7
2017-12-26T05:33:25.965Z,1.6
2017-12-26T05:34:31.181Z,1.7
2017-12-26T05:35:35.181Z,1.7
2017-12-26T05:36:39.043Z,1.6
2017-12-26T05:37:42.306Z,1.7
2017-12-26T05:38:46.300Z,1.7
2017-12-26T05:39:49.970Z,1.6
2017-12-26T05:40:53.415Z,1.7
2017-12-26T05:46:20.966Z,1.6
2017-12-26T05:47:25.054Z,1.7
2017-12-26T05:48:29.154Z,1.8
2017-12-26T05:49:33.153Z,1.8
2017-12-26T05:50:37.127Z,1.7
2017-12-26T05:51:41.819Z,1.7
2017-12-26T05:52:45.958Z,1.7
2017-12-26T05:53:50.708Z,1.7
2017-12-26T05:54:55.313Z,1.7
2017-12-26T05:55:59.348Z,1.7
2017-12-26T05:57:08.231Z,1.7
2017-12-26T05:58:21.581Z,1.6
2017-12-26T05:59:25.706Z,1.6
2017-12-26T06:00:29.614Z,1.6
2017-12-26T06:01:33.980Z,1.6
2017-12-26T06:02:37.791Z,1.5
2017-12-26T06:03:42.005Z,1.5
2017-12-26T06:04:46.227Z,1.5
2017-12-26T06:05:51.575Z,1.5
2017-12-26T06:06:57.179Z,1.5
2017-12-26T06:08:05.127Z,1.5
2017-12-26T06:09:08.455Z,1.5
2017-12-26T06:10:13.032Z,1.5
2017-12-26T06:11:18.117Z,1.5
2017-12-26T06:12:23.790Z,1.5
2017-12-26T06:13:27.691Z,1.5
2017-12-26T06:14:31.393Z,1.5
2017-12-26T06:15:36.201Z,1.5
2017-12-26T06:16:39.760Z,1.5
2017-12-26T06:17:54.241Z,1.4
2017-12-26T06:19:01.832Z,1.5
2017-12-26T06:20:06.601Z,1.4
2017-12-26T06:21:12.133Z,1.4
2017-12-26T06:22:17.181Z,1.4
2017-12-26T06:23:20.634Z,1.4
2017-12-26T06:24:25.792Z,1.4
2017-12-26T06:25:30.508Z,1.4
2017-12-26T06:26:35.448Z,1.4
2017-12-26T06:27:38.940Z,1.4
2017-12-26T06:28:43.615Z,1.4
2017-12-26T06:29:50.805Z,1.4
2017-12-26T06:30:54.721Z,1.4
2017-12-26T06:31:58.930Z,1.4
2017-12-26T06:33:03.085Z,1.4
2017-12-26T06:34:07.291Z,1.4
2017-12-26T06:35:14.143Z,1.4
2017-12-26T06:36:19.696Z,1.4
2017-12-26T06:37:24.620Z,1.5
2017-12-26T06:38:28.468Z,1.4
2017-12-26T06:39:33.725Z,1.4
2017-12-26T06:40:41.900Z,1.4
2017-12-26T06:41:45.582Z,1.4
2017-12-26T06:42:48.837Z,1.4
2017-12-26T06:43:53.271Z,1.5
2017-12-26T06:44:56.833Z,1.4
2017-12-26T06:46:00.946Z,1.5
2017-12-26T06:47:04.764Z,1.4
2017-12-26T06:48:09.210Z,1.4
2017-12-26T06:49:12.736Z,1.4
2017-12-26T06:50:17.475Z,1.4
2017-12-26T06:51:24.446Z,1.4
2017-12-26T06:52:30.908Z,1.4
2017-12-26T06:53:35.286Z,1.4
2017-12-26T06:54:40.008Z,1.3
2017-12-26T06:55:44.123Z,1.3
2017-12-26T06:56:47.464Z,1.3
2017-12-26T06:57:50.927Z,1.3
2017-12-26T06:58:57.154Z,1.3
2017-12-26T07:00:02.057Z,1.3
2017-12-26T07:01:09.108Z,1.3
2017-12-26T07:02:16.647Z,1.3
2017-12-26T07:03:22.286Z,1.3
2017-12-26T07:04:27.650Z,1.3
2017-12-26T07:05:31.783Z,1.4
2017-12-26T07:06:36.234Z,1.4
2017-12-26T07:07:40.918Z,1.4
2017-12-26T07:08:44.889Z,1.4
2017-12-26T07:09:50.244Z,1.5
2017-12-26T07:10:54.576Z,1.5
2017-12-26T07:11:58.604Z,1.5
2017-12-26T07:13:09.055Z,1.5
2017-12-26T07:14:13.177Z,1.5
2017-12-26T07:15:16.451Z,1.6
2017-12-26T07:16:20.005Z,1.6
2017-12-26T07:17:24.142Z,1.6
2017-12-26T07:18:28.328Z,1.7
2017-12-26T07:19:32.836Z,1.7
2017-12-26T07:20:37.280Z,1.7
2017-12-26T07:21:40.541Z,1.7
2017-12-26T07:22:44.787Z,1.7
2017-12-26T07:23:55.324Z,1.8
2017-12-26T07:24:59.418Z,1.8
2017-12-26T07:26:04.765Z,1.8
2017-12-26T07:27:08.846Z,1.8
2017-12-26T07:28:14.235Z,1.8
2017-12-26T07:29:18.737Z,1.8
2017-12-26T07:30:24.034Z,1.8
2017-12-26T07:31:28.490Z,1.8
2017-12-26T07:32:32.157Z,1.8
2017-12-26T07:33:35.363Z,1.8
2017-12-26T07:34:42.610Z,1.9
2017-12-26T07:35:46.937Z,1.9
2017-12-26T07:36:51.006Z,1.9
2017-12-26T07:37:54.334Z,1.9
2017-12-26T07:38:58.740Z,1.9
2017-12-26T07:40:04.307Z,1.9
2017-12-26T07:41:08.146Z,1.9
2017-12-26T07:42:12.185Z,2
2017-12-26T07:43:17.121Z,1.9
2017-12-26T07:44:21.140Z,2
2017-12-26T07:45:31.015Z,2
2017-12-26T07:46:36.017Z,2
2017-12-26T07:47:43.384Z,2.1
2017-12-26T07:48:48.646Z,2.1
2017-12-26T07:49:53.313Z,2.2
2017-12-26T07:50:57.684Z,2.2
2017-12-26T07:52:02.170Z,2.2
2017-12-26T07:53:07.210Z,2.2
2017-12-26T07:54:12.838Z,2.2
2017-12-26T07:55:19.191Z,2.2
2017-12-26T07:56:25.554Z,2.3
2017-12-26T07:57:30.464Z,2.3
2017-12-26T07:58:35.786Z,2.4
2017-12-26T07:59:41.281Z,2.4
2017-12-26T08:00:45.418Z,2.6
2017-12-26T08:01:49.531Z,2.6
2017-12-26T08:02:53.608Z,2.7
2017-12-26T08:03:57.528Z,2.8
2017-12-26T08:05:01.522Z,2.8
2017-12-26T08:06:06.035Z,2.9
2017-12-26T08:07:14.288Z,2.9
2017-12-26T08:08:18.669Z,2.9
2017-12-26T08:09:22.376Z,2.9
2017-12-26T08:10:25.753Z,2.9
2017-12-26T08:11:29.141Z,3
2017-12-26T08:12:33.683Z,3
2017-12-26T08:13:37.797Z,3
2017-12-26T08:14:42.476Z,3
2017-12-26T08:15:49.839Z,3
2017-12-26T08:16:55.164Z,3
2017-12-26T08:18:03.069Z,3
2017-12-26T08:19:10.109Z,3
2017-12-26T08:20:16.361Z,3
2017-12-26T08:21:21.166Z,3.1
2017-12-26T08:22:25.982Z,3.1
2017-12-26T08:23:29.377Z,3.1
2017-12-26T08:24:34.439Z,3.2
2017-12-26T08:25:38.519Z,3.2
2017-12-26T08:26:44.030Z,3.2
2017-12-26T08:27:48.572Z,3.3
2017-12-26T08:28:56.512Z,3.2
2017-12-26T08:30:00.618Z,3.2
2017-12-26T08:31:04.768Z,3.3
2017-12-26T08:32:08.256Z,3.4
2017-12-26T08:33:12.992Z,3.3
2017-12-26T08:34:16.953Z,3.4
2017-12-26T08:35:20.063Z,3.4
2017-12-26T08:36:24.242Z,3.5
2017-12-26T08:37:28.104Z,3.5
2017-12-26T08:38:32.206Z,3.5
2017-12-26T08:39:39.439Z,3.6
2017-12-26T08:40:43.325Z,3.6
2017-12-26T08:41:47.610Z,3.7
2017-12-26T08:42:52.728Z,3.7
2017-12-26T08:43:57.992Z,3.8
2017-12-26T08:45:02.430Z,3.8
2017-12-26T08:46:06.821Z,3.9
2017-12-26T08:47:11.630Z,3.8
2017-12-26T08:48:15.693Z,3.9
2017-12-26T08:49:19.882Z,4
2017-12-26T08:50:28.756Z,4
2017-12-26T08:51:32.216Z,3.9
2017-12-26T08:52:35.770Z,4
2017-12-26T08:53:39.235Z,4.1
2017-12-26T08:54:43.114Z,4.1
2017-12-26T08:55:47.497Z,4.2
2017-12-26T08:56:51.083Z,4.2
2017-12-26T08:57:54.637Z,4.2
2017-12-26T08:58:59.883Z,4.2
2017-12-26T09:00:04.151Z,4.3
2017-12-26T09:01:13.096Z,4.3
2017-12-26T09:02:26.689Z,4.4
2017-12-26T09:03:30.861Z,4.5
2017-12-26T09:04:34.312Z,4.5
2017-12-26T09:05:37.844Z,4.6
2017-12-26T09:06:41.965Z,4.6
2017-12-26T09:07:45.533Z,4.6
2017-12-26T09:08:48.850Z,4.6
2017-12-26T09:09:52.309Z,4.7
2017-12-26T09:10:56.442Z,4.6
2017-12-26T09:12:04.200Z,4.6
2017-12-26T09:13:09.773Z,4.6
2017-12-26T09:14:13.266Z,4.6
2017-12-26T09:15:16.784Z,4.7
2017-12-26T09:16:21.431Z,4.7
2017-12-26T09:17:29.759Z,4.7
2017-12-26T09:18:33.326Z,4.7
2017-12-26T09:19:37.412Z,4.8
2017-12-26T09:20:40.744Z,4.8
2017-12-26T09:21:45.539Z,4.8
2017-12-26T09:22:54.759Z,4.9
2017-12-26T09:23:58.198Z,5
2017-12-26T09:25:01.844Z,5
2017-12-26T09:26:05.455Z,5.1
2017-12-26T09:27:09.672Z,5.1
2017-12-26T09:28:13.077Z,5.2
2017-12-26T09:29:17.656Z,5.2
2017-12-26T09:30:22.112Z,5.2
2017-12-26T09:31:25.525Z,5.3
2017-12-26T09:32:29.213Z,5.3
2017-12-26T09:33:37.511Z,5.4
2017-12-26T09:34:41.648Z,5.4
2017-12-26T09:35:46.840Z,5.5
2017-12-26T09:36:50.832Z,5.5
2017-12-26T09:37:55.165Z,5.5
2017-12-26T09:38:59.212Z,5.6
2017-12-26T09:40:02.619Z,5.6
2017-12-26T09:41:06.055Z,5.7
2017-12-26T09:42:11.261Z,5.7
2017-12-26T09:43:14.872Z,5.8
2017-12-26T09:44:23.578Z,5.8
2017-12-26T09:45:27.276Z,5.9
2017-12-26T09:46:30.892Z,5.9
2017-12-26T09:47:34.584Z,5.9
2017-12-26T09:48:38.128Z,5.9
2017-12-26T09:49:51.997Z,6
2017-12-26T09:50:56.493Z,6
2017-12-26T09:52:00.124Z,6.1
2017-12-26T09:53:03.631Z,6.2
2017-12-26T09:54:07.428Z,6.2
2017-12-26T09:55:16.308Z,6.3
2017-12-26T09:56:19.991Z,6.4
2017-12-26T09:57:23.582Z,6.4
2017-12-26T09:58:27.147Z,6.5
2017-12-26T09:59:30.692Z,6.6
2017-12-26T10:00:34.817Z,6.6
2017-12-26T10:01:38.694Z,6.7
2017-12-26T10:02:42.925Z,6.7
2017-12-26T10:03:46.530Z,6.8
2017-12-26T10:04:50.934Z,6.8
2017-12-26T10:05:57.927Z,6.9
2017-12-26T10:07:01.298Z,6.9
2017-12-26T10:08:05.450Z,7
2017-12-26T10:09:09.060Z,7
2017-12-26T10:10:12.570Z,7.1
2017-12-26T10:11:16.108Z,7.1
2017-12-26T10:12:20.237Z,7.2
2017-12-26T10:13:24.414Z,7.2
2017-12-26T10:14:28.538Z,7.1
2017-12-26T10:15:32.772Z,7.1
2017-12-26T10:16:41.104Z,7
2017-12-26T10:17:44.611Z,7
2017-12-26T10:18:48.736Z,7
2017-12-26T10:19:52.329Z,7
2017-12-26T10:20:55.819Z,7
2017-12-26T10:22:01.481Z,7
2017-12-26T10:23:06.345Z,6.9
2017-12-26T10:24:09.924Z,6.9
2017-12-26T10:25:14.618Z,6.9
2017-12-26T10:26:21.012Z,6.9
2017-12-26T10:27:29.676Z,6.9
2017-12-26T10:28:33.894Z,6.9
2017-12-26T10:29:38.213Z,6.9
2017-12-26T10:30:41.650Z,6.9
2017-12-26T10:31:45.188Z,7
2017-12-26T10:32:48.801Z,7
2017-12-26T10:33:52.893Z,7
2017-12-26T10:34:57.140Z,7
2017-12-26T10:36:01.301Z,7
2017-12-26T10:37:05.680Z,6.9
2017-12-26T10:38:12.947Z,6.9
2017-12-26T10:39:16.595Z,6.8
2017-12-26T10:40:20.342Z,6.8
2017-12-26T10:41:23.994Z,6.8
2017-12-26T10:42:28.926Z,6.8
2017-12-26T10:43:32.573Z,6.8
2017-12-26T10:44:37.208Z,6.8
2017-12-26T10:45:40.908Z,6.8
2017-12-26T10:46:44.727Z,6.8
2017-12-26T10:47:48.368Z,6.8
2017-12-26T10:48:55.616Z,6.7
2017-12-26T10:49:59.556Z,6.7
2017-12-26T10:51:03.960Z,6.7
2017-12-26T10:52:07.690Z,6.7
2017-12-26T10:53:11.468Z,6.7
2017-12-26T10:54:15.645Z,6.6
2017-12-26T10:55:19.977Z,6.6
2017-12-26T10:56:24.316Z,6.5
2017-12-26T10:57:27.964Z,6.5
2017-12-26T10:58:31.558Z,6.4
2017-12-26T10:59:39.559Z,6.4
2017-12-26T11:00:44.000Z,6.4
2017-12-26T11:01:48.438Z,6.3
2017-12-26T11:02:52.011Z,6.3
2017-12-26T11:03:55.713Z,6.3
2017-12-26T11:04:59.312Z,6.3
2017-12-26T11:06:02.772Z,6.3
2017-12-26T11:07:06.432Z,6.3
2017-12-26T11:08:10.148Z,6.3
2017-12-26T11:09:13.609Z,6.3
2017-12-26T11:10:20.058Z,6.3
2017-12-26T11:11:23.731Z,6.3
2017-12-26T11:12:27.468Z,6.3
2017-12-26T11:13:31.872Z,6.4
2017-12-26T11:14:35.377Z,6.4
2017-12-26T11:15:39.952Z,6.3
2017-12-26T11:16:43.464Z,6.3
2017-12-26T11:17:48.216Z,6.3
2017-12-26T11:18:53.078Z,6.3
2017-12-26T11:19:57.548Z,6.3
2017-12-26T11:21:06.179Z,6.4
2017-12-26T11:22:09.748Z,6.4
2017-12-26T11:23:13.424Z,6.5
2017-12-26T11:24:19.578Z,6.6
2017-12-26T11:25:23.339Z,6.5
2017-12-26T11:26:27.592Z,6.5
2017-12-26T11:27:31.229Z,6.4
2017-12-26T11:28:34.781Z,6.5
2017-12-26T11:29:38.380Z,6.5
2017-12-26T11:30:42.030Z,6.5
2017-12-26T11:31:49.730Z,6.5
2017-12-26T11:32:53.001Z,6.5
2017-12-26T11:33:56.330Z,6.5
2017-12-26T11:35:01.376Z,6.5
2017-12-26T11:36:05.896Z,6.5
2017-12-26T11:37:09.994Z,6.5
2017-12-26T11:38:13.661Z,6.6
2017-12-26T11:39:17.908Z,6.6
2017-12-26T11:40:21.511Z,6.6
2017-12-26T11:41:29.524Z,6.5
2017-12-26T11:42:36.976Z,6.5
2017-12-26T11:43:41.934Z,6.5
2017-12-26T11:44:45.499Z,6.5
2017-12-26T11:45:49.094Z,6.5
2017-12-26T11:46:54.471Z,6.5
2017-12-26T11:47:57.947Z,6.5
2017-12-26T11:49:01.583Z,6.5
2017-12-26T11:50:05.295Z,6.5
2017-12-26T11:51:09.272Z,6.6
2017-12-26T11:52:12.936Z,6.6
2017-12-26T11:53:19.328Z,6.6
2017-12-26T11:54:22.930Z,6.6
2017-12-26T11:55:26.446Z,6.6
2017-12-26T11:56:29.940Z,6.6
2017-12-26T11:57:33.533Z,6.6
2017-12-26T11:58:37.739Z,6.6
2017-12-26T11:59:43.534Z,6.6
2017-12-26T12:00:48.385Z,6.6
2017-12-26T12:01:52.817Z,6.6
2017-12-26T12:02:57.247Z,6.6
2017-12-26T12:04:05.220Z,6.7
2017-12-26T12:05:10.508Z,6.7
2017-12-26T12:06:14.273Z,6.7
2017-12-26T12:07:17.969Z,6.7
2017-12-26T12:08:22.335Z,6.8
2017-12-26T12:09:26.457Z,6.8
2017-12-26T12:10:30.072Z,6.8
2017-12-26T12:11:35.888Z,6.9
2017-12-26T12:12:40.198Z,6.8
2017-12-26T12:13:43.818Z,6.9
2017-12-26T12:14:52.528Z,6.9
2017-12-26T12:15:57.418Z,6.9
2017-12-26T12:17:01.855Z,6.8
2017-12-26T12:18:08.298Z,6.9
2017-12-26T12:19:12.571Z,6.9
2017-12-26T12:20:16.125Z,6.9
2017-12-26T12:21:19.641Z,6.9
2017-12-26T12:22:23.828Z,6.9
2017-12-26T12:23:27.499Z,6.8
2017-12-26T12:24:31.707Z,6.8
2017-12-26T12:25:41.093Z,6.8
2017-12-26T12:26:45.240Z,6.9
2017-12-26T12:27:48.698Z,6.8
2017-12-26T12:28:52.315Z,6.9
2017-12-26T12:29:56.550Z,7
2017-12-26T12:31:00.853Z,7
2017-12-26T12:32:05.853Z,7
2017-12-26T12:33:10.384Z,7
2017-12-26T12:34:15.146Z,7
2017-12-26T12:35:20.245Z,7
2017-12-26T12:36:29.073Z,7.1
2017-12-26T12:37:32.562Z,7.1
2017-12-26T12:38:37.276Z,7.1
2017-12-26T12:39:43.162Z,7.1
2017-12-26T12:40:47.320Z,7
2017-12-26T12:41:51.006Z,7
2017-12-26T12:42:54.674Z,7
2017-12-26T12:43:58.318Z,7
2017-12-26T12:45:01.959Z,7
2017-12-26T12:46:07.083Z,7
2017-12-26T12:47:15.258Z,7
2017-12-26T12:48:19.333Z,7.1
2017-12-26T12:49:23.637Z,7.1
2017-12-26T12:50:27.271Z,7.1
2017-12-26T12:51:30.994Z,7.2
2017-12-26T12:52:34.789Z,7.2
2017-12-26T12:53:38.387Z,7.1
2017-12-26T12:54:42.201Z,7.2
2017-12-26T12:55:45.829Z,7.1
2017-12-26T12:56:49.423Z,7.2
2017-12-26T12:58:02.703Z,7.1
2017-12-26T12:59:06.293Z,7.2
2017-12-26T13:00:09.858Z,7.2
2017-12-26T13:01:13.369Z,7.1
2017-12-26T13:02:16.911Z,7.1
2017-12-26T13:03:21.419Z,7.2
2017-12-26T13:04:25.036Z,7.1
2017-12-26T13:05:30.929Z,7.1
2017-12-26T13:06:34.347Z,7.1
2017-12-26T13:07:37.943Z,7
2017-12-26T13:08:47.053Z,7
2017-12-26T13:09:50.780Z,7
2017-12-26T13:10:54.685Z,7
2017-12-26T13:11:58.097Z,6.9
2017-12-26T13:13:02.162Z,6.9
2017-12-26T13:14:05.653Z,6.9
2017-12-26T13:15:09.261Z,6.9
2017-12-26T13:16:12.827Z,6.8
2017-12-26T13:17:16.544Z,6.9
2017-12-26T13:18:20.922Z,6.9
2017-12-26T13:19:28.222Z,6.8
2017-12-26T13:20:32.655Z,6.8
2017-12-26T13:21:36.382Z,6.9
2017-12-26T13:22:40.003Z,6.9
2017-12-26T13:23:43.911Z,6.9
2017-12-26T13:24:47.503Z,6.8
2017-12-26T13:25:51.071Z,6.8
2017-12-26T13:26:54.544Z,6.7
2017-12-26T13:27:57.930Z,6.7
2017-12-26T13:29:01.535Z,6.6
2017-12-26T13:30:08.583Z,6.6
2017-12-26T13:31:13.146Z,6.6
2017-12-26T13:32:16.881Z,6.6
2017-12-26T13:33:20.624Z,6.6
2017-12-26T13:34:24.415Z,6.7
2017-12-26T13:35:28.062Z,6.6
2017-12-26T13:36:32.313Z,6.5
2017-12-26T13:37:35.734Z,6.5
2017-12-26T13:38:39.305Z,6.4
2017-12-26T13:39:42.855Z,6.5
2017-12-26T13:40:49.993Z,6.5
2017-12-26T13:41:53.411Z,6.5
2017-12-26T13:42:57.099Z,6.4
2017-12-26T13:44:00.673Z,6.4
2017-12-26T13:45:04.280Z,6.4
2017-12-26T13:46:07.763Z,6.5
2017-12-26T13:47:11.307Z,6.4
2017-12-26T13:48:16.008Z,6.4
2017-12-26T13:49:19.632Z,6.4
2017-12-26T13:50:23.062Z,6.4
2017-12-26T13:51:30.144Z,6.4
2017-12-26T13:52:33.653Z,6.4
2017-12-26T13:53:37.273Z,6.4
2017-12-26T13:54:41.566Z,6.4
2017-12-26T13:55:45.064Z,6.3
2017-12-26T13:56:48.531Z,6.3
2017-12-26T13:57:51.972Z,6.4
2017-12-26T13:58:55.520Z,6.3
2017-12-26T13:59:59.653Z,6.2
2017-12-26T14:01:03.016Z,6.3
2017-12-26T14:02:10.079Z,6.2
2017-12-26T14:03:13.501Z,6.1
2017-12-26T14:04:17.054Z,6.1
2017-12-26T14:05:20.467Z,6.1
2017-12-26T14:06:23.961Z,6.1
2017-12-26T14:07:27.520Z,6
2017-12-26T14:08:30.866Z,6
2017-12-26T14:09:34.421Z,6
2017-12-26T14:10:38.672Z,6.1
2017-12-26T14:11:42.529Z,6
2017-12-26T14:12:51.732Z,6.1
2017-12-26T14:13:54.939Z,6
2017-12-26T14:14:58.382Z,5.9
2017-12-26T14:16:01.868Z,5.9
2017-12-26T14:17:05.828Z,5.9
2017-12-26T14:18:11.055Z,5.9
2017-12-26T14:19:14.497Z,6
2017-12-26T14:20:18.025Z,5.9
2017-12-26T14:21:23.657Z,5.8
2017-12-26T14:22:27.058Z,5.8
2017-12-26T14:23:34.150Z,5.8
2017-12-26T14:24:37.613Z,5.8
2017-12-26T14:25:41.720Z,5.8
2017-12-26T14:26:45.013Z,5.7
2017-12-26T14:27:49.037Z,5.7
2017-12-26T14:28:52.389Z,5.7
2017-12-26T14:29:55.711Z,5.6
2017-12-26T14:30:59.109Z,5.6
2017-12-26T14:32:02.603Z,5.6
2017-12-26T14:33:05.961Z,5.7
2017-12-26T14:34:12.894Z,5.6
2017-12-26T14:35:16.341Z,5.5
2017-12-26T14:36:20.386Z,5.5
2017-12-26T14:37:24.395Z,5.5
2017-12-26T14:38:29.679Z,5.6
2017-12-26T14:39:35.239Z,5.5
2017-12-26T14:40:38.530Z,5.5
2017-12-26T14:41:42.657Z,5.5
2017-12-26T14:42:45.843Z,5.5
2017-12-26T14:43:51.094Z,5.5
2017-12-26T14:44:57.854Z,5.5
2017-12-26T14:46:01.224Z,5.4
2017-12-26T14:47:04.780Z,5.4
2017-12-26T14:48:08.054Z,5.4
2017-12-26T14:49:12.159Z,5.5
2017-12-26T14:50:15.595Z,5.4
2017-12-26T14:51:19.091Z,5.4
2017-12-26T14:52:22.661Z,5.5
2017-12-26T14:53:28.069Z,5.5
2017-12-26T14:54:32.650Z,5.4
2017-12-26T14:55:40.764Z,5.4
2017-12-26T14:56:44.052Z,5.4
2017-12-26T14:57:48.337Z,5.4
2017-12-26T14:58:51.778Z,5.5
2017-12-26T14:59:56.736Z,5.4
2017-12-26T15:01:00.125Z,5.4
2017-12-26T15:02:05.167Z,5.4
2017-12-26T15:03:09.513Z,5.5
2017-12-26T15:04:12.967Z,5.4
2017-12-26T15:05:16.787Z,5.4